Time;durP1;ratioP1;P1;durP2;ratioP2;P2;SDS_P1;SDS_P2;PMS_P1;PMS_P2;Temp;Humidity;BMP_temperature;BMP_pressure;BME280_temperature;BME280_humidity;BME280_pressure;Samples;Min_cycle;Max_cycle;Signal;HPM_P1;HPM_P2
2022/09/26 04:00:49;;;;;;;14.13;12.93;;;11.70;99.90;;;;;;5782217;23;20471;-63
2022/09/26 04:03:15;;;;;;;15.00;13.70;;;11.70;99.90;;;;;;4975264;28;20969;-62
2022/09/26 04:05:43;;;;;;;13.93;12.57;;;11.70;99.90;;;;;;4975739;28;20505;-63
2022/09/26 04:08:09;;;;;;;14.27;12.90;;;11.70;99.90;;;;;;4975491;28;20450;-63
2022/09/26 04:10:36;;;;;;;14.37;13.13;;;11.70;99.90;;;;;;4975278;28;20902;-63
2022/09/26 04:13:02;;;;;;;14.10;12.80;;;11.60;99.90;;;;;;4975392;28;20513;-63
2022/09/26 04:15:29;;;;;;;12.67;11.53;;;11.60;99.90;;;;;;4975369;28;20486;-63
2022/09/26 04:17:57;;;;;;;14.43;12.13;;;11.60;99.90;;;;;;4987800;28;20484;-63
2022/09/26 04:20:24;;;;;;;14.07;12.60;;;11.60;99.90;;;;;;4987290;28;20507;-63
2022/09/26 04:22:51;;;;;;;14.57;12.00;;;11.50;99.90;;;;;;4976460;28;20462;-62
2022/09/26 04:25:17;;;;;;;15.50;13.90;;;11.50;99.90;;;;;;4975088;28;20450;-63
2022/09/26 04:27:44;;;;;;;15.67;13.90;;;11.40;99.90;;;;;;4975255;28;20451;-64
2022/09/26 04:30:11;;;;;;;18.47;14.87;;;11.30;99.90;;;;;;4975017;28;20486;-63
2022/09/26 04:32:38;;;;;;;18.20;15.07;;;11.30;99.90;;;;;;4975244;28;20466;-63
2022/09/26 04:35:07;;;;;;;15.00;13.60;;;11.20;99.90;;;;;;4975217;28;20455;-63
2022/09/26 04:37:35;;;;;;;16.23;14.73;;;11.20;99.90;;;;;;4975305;28;20517;-63
2022/09/26 04:40:02;;;;;;;15.77;13.97;;;11.10;99.90;;;;;;4976226;28;20546;-63
2022/09/26 04:42:32;;;;;;;15.07;13.43;;;11.10;99.90;;;;;;4978986;28;20474;-64
2022/09/26 04:44:59;;;;;;;15.63;14.03;;;11.10;99.90;;;;;;4979248;28;20830;-63
2022/09/26 04:47:26;;;;;;;15.00;13.60;;;11.10;99.90;;;;;;4979010;28;20458;-65
2022/09/26 04:49:52;;;;;;;14.80;13.30;;;11.10;99.90;;;;;;4978740;28;20477;-64
2022/09/26 04:52:20;;;;;;;13.93;12.43;;;11.10;99.90;;;;;;4978823;28;20478;-63
2022/09/26 04:54:47;;;;;;;14.40;11.90;;;11.10;99.90;;;;;;4979629;28;20443;-63
2022/09/26 04:57:14;;;;;;;13.57;12.40;;;11.20;99.90;;;;;;4978995;28;21000;-63
2022/09/26 04:59:40;;;;;;;12.67;11.67;;;11.10;99.90;;;;;;4979044;28;20517;-63
2022/09/26 05:02:07;;;;;;;14.00;12.80;;;11.10;99.90;;;;;;4978568;28;20556;-63
2022/09/26 05:04:34;;;;;;;15.80;14.20;;;11.10;99.90;;;;;;4990336;28;20478;-63
2022/09/26 05:07:01;;;;;;;14.67;13.27;;;11.10;99.90;;;;;;4981857;28;20450;-63
2022/09/26 05:09:29;;;;;;;15.10;13.60;;;11.10;99.90;;;;;;4978895;28;20482;-63
2022/09/26 05:11:56;;;;;;;14.17;12.63;;;11.10;99.90;;;;;;4977999;28;20479;-63
2022/09/26 05:14:23;;;;;;;14.60;12.87;;;11.10;99.90;;;;;;4978601;28;20455;-64
2022/09/26 05:16:50;;;;;;;14.13;12.73;;;11.10;99.90;;;;;;4978487;28;20859;-64
2022/09/26 05:19:17;;;;;;;17.87;14.47;;;11.10;99.90;;;;;;4978062;28;20454;-64
2022/09/26 05:21:44;;;;;;;14.40;12.80;;;11.10;99.90;;;;;;4978123;28;20533;-63
2022/09/26 05:26:56;;;;;;;14.67;13.27;;;11.10;99.90;;;;;;4978323;28;20909;-64
2022/09/26 05:29:23;;;;;;;16.07;14.47;;;11.00;99.90;;;;;;4978186;28;20486;-64
2022/09/26 05:31:52;;;;;;;17.57;15.87;;;11.00;99.90;;;;;;4983315;28;20485;-64
2022/09/26 05:34:19;;;;;;;18.13;16.33;;;10.90;99.90;;;;;;4980896;28;20454;-65
2022/09/26 05:36:46;;;;;;;21.13;18.50;;;10.90;99.90;;;;;;4978627;28;20458;-65
2022/09/26 05:41:53;;;;;;;21.37;18.67;;;10.90;99.90;;;;;;4978043;28;20568;-64
2022/09/26 05:44:22;;;;;;;22.60;19.13;;;10.80;99.90;;;;;;4979804;28;20550;-65
2022/09/26 05:46:49;;;;;;;21.23;19.03;;;10.80;99.90;;;;;;4978942;28;20810;-65
2022/09/26 05:49:15;;;;;;;25.63;17.93;;;10.90;99.90;;;;;;4993130;28;20481;-64
2022/09/26 05:51:42;;;;;;;19.20;17.30;;;10.90;99.90;;;;;;4999816;28;20500;-64
2022/09/26 05:54:09;;;;;;;18.90;17.00;;;10.90;99.90;;;;;;4997539;28;20450;-64
2022/09/26 05:56:36;;;;;;;19.40;16.70;;;11.00;99.90;;;;;;4990568;28;20949;-63
2022/09/26 05:59:03;;;;;;;19.10;17.17;;;11.10;99.90;;;;;;4983016;28;20486;-65
2022/09/26 06:01:32;;;;;;;18.70;16.80;;;11.10;99.90;;;;;;4978509;28;20483;-65
2022/09/26 06:03:59;;;;;;;18.20;16.30;;;11.20;99.90;;;;;;4977292;28;20455;-64
2022/09/26 06:06:25;;;;;;;16.90;15.40;;;11.30;99.90;;;;;;4978550;28;20866;-63
2022/09/26 06:08:52;;;;;;;16.77;15.17;;;11.30;99.90;;;;;;4977534;28;20513;-64
2022/09/26 06:11:21;;;;;;;16.73;15.23;;;11.40;99.90;;;;;;4978051;28;20478;-64
2022/09/26 06:13:49;;;;;;;17.23;15.03;;;11.50;99.90;;;;;;4978422;28;20501;-64
2022/09/26 06:16:18;;;;;;;16.37;14.87;;;11.70;99.90;;;;;;4977838;28;20980;-64
2022/09/26 06:18:49;;;;;;;16.47;14.57;;;11.80;99.90;;;;;;4977619;28;20554;-64
2022/09/26 06:21:17;;;;;;;16.60;13.07;;;11.90;99.90;;;;;;4977974;28;20565;-64
2022/09/26 06:23:44;;;;;;;14.37;12.97;;;11.90;99.90;;;;;;4978613;28;20461;-64
2022/09/26 06:26:13;;;;;;;17.43;14.30;;;12.00;99.90;;;;;;4978089;28;21001;-65
2022/09/26 06:28:40;;;;;;;15.00;13.50;;;12.00;99.90;;;;;;4979310;28;20451;-63
2022/09/26 06:31:09;;;;;;;15.00;13.43;;;12.00;99.90;;;;;;4987775;28;20483;-63
2022/09/26 06:33:36;;;;;;;14.43;12.90;;;12.10;99.90;;;;;;4986532;28;20494;-64
2022/09/26 06:36:06;;;;;;;14.53;13.03;;;12.10;99.90;;;;;;4977433;28;20997;-64
2022/09/26 06:38:33;;;;;;;12.97;11.80;;;12.20;99.90;;;;;;4977799;28;20485;-64
2022/09/26 06:41:00;;;;;;;13.87;12.47;;;12.20;99.90;;;;;;4977405;28;20494;-64
2022/09/26 06:43:27;;;;;;;13.90;12.17;;;12.30;99.90;;;;;;4977530;28;20454;-64
2022/09/26 06:45:53;;;;;;;13.20;11.17;;;12.40;99.90;;;;;;4977584;28;20484;-64
2022/09/26 06:48:21;;;;;;;15.20;11.00;;;12.50;99.90;;;;;;4978351;28;20459;-64
2022/09/26 06:50:51;;;;;;;12.17;10.97;;;12.60;99.90;;;;;;4996729;28;20494;-65
2022/09/26 06:53:20;;;;;;;11.77;10.43;;;12.80;99.90;;;;;;4981581;28;20474;-64
2022/09/26 06:55:46;;;;;;;12.07;10.97;;;12.90;99.90;;;;;;4977799;28;20490;-64
2022/09/26 06:58:13;;;;;;;10.87;9.87;;;12.90;99.90;;;;;;4977359;28;20509;-64
2022/09/26 07:00:40;;;;;;;11.23;10.07;;;13.10;99.90;;;;;;4976731;28;20489;-64
2022/09/26 07:03:07;;;;;;;11.70;10.60;;;13.20;99.90;;;;;;4977088;28;20438;-64
2022/09/26 07:05:34;;;;;;;11.00;9.80;;;13.20;99.90;;;;;;4975971;28;20483;-63
2022/09/26 07:08:01;;;;;;;10.90;9.93;;;13.30;99.90;;;;;;4979584;28;20545;-64
2022/09/26 07:10:33;;;;;;;9.70;8.80;;;13.40;99.90;;;;;;4979733;28;20482;-64
2022/09/26 07:13:01;;;;;;;10.63;9.60;;;13.50;99.90;;;;;;4977546;28;20446;-64
2022/09/26 07:15:31;;;;;;;9.60;8.80;;;13.60;99.90;;;;;;4977417;28;20460;-64
2022/09/26 07:18:01;;;;;;;10.70;9.47;;;13.70;99.90;;;;;;4977124;28;20443;-63
2022/09/26 07:20:29;;;;;;;11.10;9.43;;;13.80;99.90;;;;;;4976631;28;20956;-65
2022/09/26 07:22:56;;;;;;;13.23;9.47;;;13.90;99.90;;;;;;4976510;28;20455;-64
2022/09/26 07:25:22;;;;;;;9.77;8.70;;;14.00;99.90;;;;;;4976838;28;20509;-64
2022/09/26 07:27:52;;;;;;;9.33;8.43;;;14.10;99.90;;;;;;4976329;28;20461;-64
2022/09/26 07:30:19;;;;;;;8.87;8.10;;;14.10;99.90;;;;;;4985117;28;20474;-64
2022/09/26 07:32:46;;;;;;;8.77;7.87;;;14.30;99.90;;;;;;4994686;28;20467;-65
2022/09/26 07:35:16;;;;;;;10.90;7.47;;;14.40;99.90;;;;;;4994625;28;20481;-64
2022/09/26 07:37:43;;;;;;;7.47;6.87;;;14.70;99.90;;;;;;4983367;28;20528;-64
2022/09/26 07:40:11;;;;;;;6.40;5.70;;;15.50;99.90;;;;;;4976502;28;20450;-64
2022/09/26 07:42:37;;;;;;;7.63;5.10;;;16.00;99.90;;;;;;4976353;28;20462;-63
2022/09/26 07:45:06;;;;;;;4.77;4.13;;;16.30;99.90;;;;;;4976672;28;20502;-64
2022/09/26 07:50:17;;;;;;;6.40;3.80;;;16.50;99.90;;;;;;4976026;28;20457;-63
2022/09/26 07:52:46;;;;;;;5.00;4.60;;;16.70;99.90;;;;;;4976193;28;20462;-64
2022/09/26 07:55:16;;;;;;;5.00;4.57;;;16.80;99.90;;;;;;4976115;28;20550;-64
2022/09/26 07:57:42;;;;;;;9.87;4.07;;;16.80;99.90;;;;;;4976600;28;20485;-63
2022/09/26 08:00:15;;;;;;;4.87;4.13;;;16.70;99.90;;;;;;4975988;28;20918;-63
2022/09/26 08:02:45;;;;;;;4.00;3.60;;;16.70;99.90;;;;;;4976380;28;20435;-64
2022/09/26 08:05:18;;;;;;;4.67;4.27;;;16.50;99.90;;;;;;4978395;28;20454;-63
2022/09/26 08:07:45;;;;;;;4.63;3.57;;;16.40;99.90;;;;;;4978866;28;20902;-64
2022/09/26 08:10:18;;;;;;;4.47;3.90;;;16.30;99.90;;;;;;4978482;28;20573;-63
2022/09/26 08:12:44;;;;;;;5.43;4.53;;;16.30;99.90;;;;;;4978195;28;20910;-63
2022/09/26 08:15:13;;;;;;;4.37;4.07;;;16.30;99.90;;;;;;4977566;28;20455;-63
2022/09/26 08:17:40;;;;;;;5.13;3.77;;;16.40;99.90;;;;;;4977376;28;20509;-64
2022/09/26 08:20:07;;;;;;;4.90;4.10;;;16.50;99.90;;;;;;4977118;28;20497;-64
2022/09/26 08:22:34;;;;;;;4.10;3.80;;;16.60;99.90;;;;;;4976343;28;20474;-64
2022/09/26 08:25:01;;;;;;;5.23;3.73;;;16.80;99.90;;;;;;4976197;28;20459;-63
2022/09/26 08:27:32;;;;;;;3.70;3.40;;;16.80;99.90;;;;;;4976293;28;20854;-65
2022/09/26 08:29:59;;;;;;;5.63;3.63;;;16.80;99.90;;;;;;4975991;28;20462;-64
2022/09/26 08:32:31;;;;;;;4.70;3.50;;;16.70;99.90;;;;;;4975536;28;20478;-64
2022/09/26 08:34:58;;;;;;;3.53;3.23;;;16.80;99.90;;;;;;4975883;28;20438;-65
2022/09/26 08:37:26;;;;;;;5.70;5.20;;;16.90;99.90;;;;;;4975589;28;20507;-65
2022/09/26 08:39:53;;;;;;;5.43;4.30;;;17.00;99.90;;;;;;4975396;28;20459;-64
2022/09/26 08:42:36;;;;;;;3.53;3.23;;;17.20;99.90;;;;;;4975292;28;21052;-64
2022/09/26 08:48:26;;;;;;;7.23;3.53;;;17.60;99.90;;;;;;4976469;28;20498;-66
2022/09/26 08:50:58;;;;;;;3.23;2.93;;;18.20;99.90;;;;;;4978151;28;20487;-66
2022/09/26 08:53:29;;;;;;;4.13;2.87;;;19.00;99.90;;;;;;4980806;28;20470;-66
2022/09/26 08:55:58;;;;;;;3.60;2.63;;;19.80;99.90;;;;;;4980937;28;20451;-66
2022/09/26 08:58:30;;;;;;;3.80;2.37;;;20.90;99.90;;;;;;4982237;28;20513;-66
2022/09/26 09:01:01;;;;;;;3.40;2.20;;;21.90;99.90;;;;;;4981296;28;20478;-67
2022/09/26 09:03:34;;;;;;;4.13;2.03;;;22.30;97.50;;;;;;4981633;28;20535;-66
2022/09/26 09:06:05;;;;;;;2.70;2.40;;;22.40;93.50;;;;;;4980681;28;20926;-66
2022/09/26 09:08:37;;;;;;;7.10;2.57;;;22.50;94.00;;;;;;4982558;28;20498;-66
2022/09/26 09:11:16;;;;;;;1.93;1.80;;;22.70;95.10;;;;;;4981180;28;20482;-66
2022/09/26 09:14:05;;;;;;;3.57;1.93;;;23.20;94.20;;;;;;4981575;28;20439;-65
2022/09/26 09:16:45;;;;;;;2.80;1.60;;;23.70;91.80;;;;;;4981747;28;20471;-65
2022/09/26 09:19:24;;;;;;;4.00;2.20;;;24.60;89.20;;;;;;4983282;28;20442;-64
2022/09/26 09:22:05;;;;;;;2.07;1.97;;;25.50;81.40;;;;;;4984852;28;20470;-64
2022/09/26 09:24:48;;;;;;;3.70;2.20;;;26.40;81.00;;;;;;4991059;28;20439;-64
2022/09/26 09:27:24;;;;;;;1.67;1.57;;;27.20;74.10;;;;;;4986372;28;20466;-64
2022/09/26 09:30:03;;;;;;;5.87;1.80;;;27.40;70.10;;;;;;4987405;28;20438;-64
2022/09/26 09:32:40;;;;;;;2.50;1.87;;;27.20;68.00;;;;;;4978912;28;20474;-64
2022/09/26 09:35:13;;;;;;;1.93;1.83;;;27.70;66.80;;;;;;4982369;28;20451;-64
2022/09/26 09:37:45;;;;;;;3.73;2.10;;;27.70;63.10;;;;;;4983993;28;20447;-64
2022/09/26 09:40:19;;;;;;;2.73;1.70;;;28.00;59.90;;;;;;4994583;28;20423;-64
2022/09/26 09:42:50;;;;;;;2.20;1.53;;;27.70;60.60;;;;;;4998047;28;20435;-64
2022/09/26 09:45:22;;;;;;;2.67;1.60;;;27.70;60.60;;;;;;4999296;28;20439;-64
2022/09/26 09:47:49;;;;;;;2.20;1.57;;;28.10;62.20;;;;;;4993639;28;20439;-63
2022/09/26 09:50:27;;;;;;;2.00;1.50;;;28.20;63.50;;;;;;4983714;28;20451;-63
2022/09/26 09:53:05;;;;;;;3.40;1.53;;;28.90;58.90;;;;;;4982393;28;20434;-63
2022/09/26 09:55:44;;;;;;;1.50;1.40;;;29.50;56.80;;;;;;4982015;28;20474;-63
2022/09/26 09:58:29;;;;;;;1.63;1.40;;;29.40;55.10;;;;;;4981182;28;20464;-64
2022/09/26 10:01:08;;;;;;;1.63;1.53;;;29.40;54.90;;;;;;4977695;28;20488;-63
2022/09/26 10:03:40;;;;;;;1.70;1.60;;;29.20;55.50;;;;;;4978452;28;20547;-63
2022/09/26 10:06:12;;;;;;;4.83;1.80;;;28.50;55.50;;;;;;4977922;28;20447;-63
2022/09/26 10:08:40;;;;;;;1.50;1.40;;;28.10;56.70;;;;;;4977406;28;20802;-65
2022/09/26 10:11:22;;;;;;;2.13;1.50;;;27.30;56.80;;;;;;4978109;28;20894;-64
2022/09/26 10:13:52;;;;;;;1.73;1.63;;;26.50;58.70;;;;;;4977393;28;20925;-65
2022/09/26 10:16:19;;;;;;;3.07;1.80;;;25.90;60.80;;;;;;4977636;28;20443;-64
2022/09/26 10:18:59;;;;;;;2.10;1.37;;;25.20;60.90;;;;;;4977416;28;20969;-64
2022/09/26 10:21:32;;;;;;;2.60;2.00;;;24.50;60.60;;;;;;4977150;28;20558;-64
2022/09/26 10:24:00;;;;;;;1.70;1.60;;;23.50;64.40;;;;;;4977414;28;20526;-64
2022/09/26 10:26:33;;;;;;;1.77;1.40;;;22.60;66.30;;;;;;4977472;28;20486;-65
2022/09/26 10:29:04;;;;;;;3.23;1.60;;;21.80;66.60;;;;;;4977654;28;20451;-66
2022/09/26 10:31:35;;;;;;;4.63;1.70;;;21.30;68.10;;;;;;4977651;28;20573;-65
2022/09/26 10:34:04;;;;;;;2.13;1.20;;;21.40;73.10;;;;;;4978296;28;20527;-65
2022/09/26 10:36:35;;;;;;;3.23;1.40;;;21.90;67.90;;;;;;4978028;28;20462;-65
2022/09/26 10:41:50;;;;;;;1.67;1.57;;;23.60;62.00;;;;;;4978374;28;20461;-65
2022/09/26 10:44:22;;;;;;;1.83;1.50;;;23.30;60.80;;;;;;4977593;28;20459;-66
2022/09/26 10:46:52;;;;;;;1.30;1.20;;;23.00;62.90;;;;;;4978028;28;20454;-66
2022/09/26 10:49:24;;;;;;;2.37;1.43;;;22.70;63.20;;;;;;4977842;28;20455;-66
2022/09/26 10:52:03;;;;;;;1.77;1.67;;;21.90;64.50;;;;;;4977282;28;20483;-65
2022/09/26 10:54:41;;;;;;;1.50;1.33;;;21.00;66.70;;;;;;4977676;28;20478;-65
2022/09/26 10:57:17;;;;;;;2.20;1.67;;;21.00;69.90;;;;;;4977477;28;20439;-66
2022/09/26 10:59:45;;;;;;;3.13;1.37;;;21.00;69.00;;;;;;4977059;28;20439;-65
2022/09/26 11:02:18;;;;;;;1.20;1.10;;;20.60;67.60;;;;;;4977045;28;20863;-65
2022/09/26 11:07:37;;;;;;;1.30;1.27;;;20.20;71.80;;;;;;4977834;28;20997;-65
2022/09/26 11:10:09;;;;;;;1.17;1.07;;;20.00;74.30;;;;;;4976593;28;20922;-66
2022/09/26 11:12:38;;;;;;;2.83;1.73;;;20.00;76.00;;;;;;4976657;28;20518;-66
2022/09/26 11:15:07;;;;;;;1.83;1.60;;;20.00;74.70;;;;;;4976977;28;20461;-66
2022/09/26 11:17:46;;;;;;;1.80;1.40;;;20.10;75.20;;;;;;4980046;28;20883;-66
2022/09/26 11:20:34;;;;;;;2.37;1.40;;;20.00;74.80;;;;;;4977816;28;20450;-65
2022/09/26 11:23:13;;;;;;;1.50;1.40;;;19.80;74.80;;;;;;4976260;28;20969;-65
2022/09/26 11:25:54;;;;;;;1.30;1.20;;;19.50;77.70;;;;;;4976169;28;20451;-66
2022/09/26 11:28:24;;;;;;;1.57;1.47;;;19.20;76.10;;;;;;4976695;28;20443;-66
2022/09/26 11:30:55;;;;;;;2.00;1.43;;;18.80;78.00;;;;;;4976734;28;20549;-66
2022/09/26 11:33:23;;;;;;;1.87;1.47;;;18.80;81.40;;;;;;4976762;28;20803;-66
2022/09/26 11:36:02;;;;;;;1.77;1.13;;;19.20;80.00;;;;;;4976589;28;20476;-65
2022/09/26 11:38:45;;;;;;;1.33;1.23;;;19.60;79.10;;;;;;4976653;28;20489;-66
2022/09/26 11:41:36;;;;;;;2.73;1.70;;;20.00;78.10;;;;;;4977863;28;20467;-65
2022/09/26 11:44:19;;;;;;;2.53;1.33;;;20.30;75.10;;;;;;4977010;28;20489;-65
2022/09/26 11:47:00;;;;;;;1.40;1.30;;;20.70;75.50;;;;;;4976507;28;20514;-66
2022/09/26 11:49:48;;;;;;;1.43;1.13;;;20.90;74.40;;;;;;4976223;28;20497;-66
2022/09/26 11:52:36;;;;;;;1.90;1.20;;;21.10;73.60;;;;;;4976204;28;20483;-65
2022/09/26 11:55:17;;;;;;;1.13;1.00;;;21.10;73.30;;;;;;4994336;28;20447;-65
2022/09/26 11:57:54;;;;;;;2.63;1.27;;;20.60;70.90;;;;;;4994531;28;20439;-67
2022/09/26 12:00:26;;;;;;;1.57;1.37;;;20.30;73.10;;;;;;4986780;28;20489;-66
2022/09/26 12:03:37;;;;;;;2.40;2.20;;;19.80;73.90;;;;;;4978001;28;20518;-66
2022/09/26 12:06:16;;;;;;;5.33;1.80;;;19.30;77.90;;;;;;4996251;28;20640;-67
2022/09/26 12:08:59;;;;;;;1.77;1.67;;;18.90;83.50;;;;;;4980061;28;20463;-65
2022/09/26 12:11:35;;;;;;;1.87;1.00;;;18.20;84.40;;;;;;4977288;28;20478;-67
2022/09/26 12:14:16;;;;;;;2.70;1.30;;;17.70;85.80;;;;;;4978066;28;20449;-67
2022/09/26 12:16:51;;;;;;;0.90;0.90;;;17.40;83.40;;;;;;4976751;28;20439;-66
2022/09/26 12:19:25;;;;;;;3.03;1.10;;;17.00;82.90;;;;;;4975898;28;20541;-65
2022/09/26 12:24:49;;;;;;;1.30;1.30;;;16.40;91.80;;;;;;4968275;28;20493;-66
2022/09/26 12:27:24;;;;;;;0.93;0.93;;;16.20;93.80;;;;;;4985438;28;20506;-66
2022/09/26 12:30:01;;;;;;;2.07;0.93;;;16.20;95.50;;;;;;4982046;28;20796;-65
2022/09/26 12:32:41;;;;;;;0.90;0.90;;;16.30;94.70;;;;;;4976464;28;20486;-65
2022/09/26 12:35:27;;;;;;;1.47;1.13;;;16.50;95.80;;;;;;4975430;28;20866;-66
2022/09/26 12:38:33;;;;;;;1.13;1.10;;;16.90;96.70;;;;;;4975782;28;20443;-65
2022/09/26 12:41:13;;;;;;;8.23;2.00;;;17.40;96.00;;;;;;4935160;29;20592;-66
2022/09/26 12:43:57;;;;;;;2.73;1.30;;;18.00;94.60;;;;;;4935070;29;20462;-66
2022/09/26 12:46:36;;;;;;;1.60;1.30;;;18.30;93.60;;;;;;4962790;28;20501;-65
2022/09/26 12:49:21;;;;;;;2.73;1.27;;;18.60;93.30;;;;;;4975752;28;20450;-66
2022/09/26 12:51:51;;;;;;;2.60;1.00;;;18.80;93.20;;;;;;4975642;28;20541;-66
2022/09/26 12:54:31;;;;;;;1.43;1.30;;;19.00;93.50;;;;;;4975494;28;20443;-66
2022/09/26 12:57:08;;;;;;;2.03;1.20;;;19.10;92.60;;;;;;4975839;28;20530;-65
2022/09/26 12:59:57;;;;;;;1.10;1.10;;;19.40;91.70;;;;;;4975310;28;20443;-65
2022/09/26 13:02:50;;;;;;;1.00;1.00;;;19.40;90.50;;;;;;4976570;28;20474;-65
2022/09/26 13:05:33;;;;;;;1.50;1.40;;;19.30;90.70;;;;;;4978666;28;20977;-65
2022/09/26 13:08:09;;;;;;;1.70;1.37;;;19.30;90.70;;;;;;4979009;28;20443;-66
2022/09/26 13:10:43;;;;;;;1.63;1.20;;;19.50;91.10;;;;;;4979132;28;20478;-65
2022/09/26 13:13:38;;;;;;;1.27;1.27;;;19.30;89.20;;;;;;4979012;28;20470;-65
2022/09/26 13:16:22;;;;;;;1.30;1.20;;;18.90;88.60;;;;;;4979183;28;20969;-65
2022/09/26 13:18:52;;;;;;;3.47;1.30;;;18.70;88.10;;;;;;4979226;28;20906;-65
2022/09/26 13:21:23;;;;;;;1.30;1.30;;;18.60;91.00;;;;;;4979077;28;20482;-66
2022/09/26 13:23:56;;;;;;;3.83;1.20;;;18.40;89.10;;;;;;4978845;28;20880;-65
2022/09/26 13:26:27;;;;;;;1.80;1.10;;;17.90;87.80;;;;;;4978946;28;20478;-65
2022/09/26 13:29:01;;;;;;;1.37;1.00;;;17.60;90.10;;;;;;4978782;28;20442;-65
2022/09/26 13:31:36;;;;;;;3.03;1.00;;;17.40;90.20;;;;;;4978912;28;20540;-65
2022/09/26 13:34:11;;;;;;;1.27;0.90;;;17.10;90.50;;;;;;4978866;28;20793;-66
2022/09/26 13:36:41;;;;;;;1.27;0.90;;;16.90;90.90;;;;;;4978843;28;20501;-64
2022/09/26 13:39:12;;;;;;;0.73;0.70;;;16.80;91.20;;;;;;4978605;28;20529;-65
2022/09/26 13:41:48;;;;;;;0.77;0.77;;;16.80;90.30;;;;;;4978621;28;20485;-65
2022/09/26 13:44:27;;;;;;;0.83;0.83;;;16.80;89.20;;;;;;4979163;28;20443;-64
2022/09/26 13:47:04;;;;;;;0.70;0.50;;;16.80;90.20;;;;;;4978565;28;20505;-65
2022/09/26 13:49:41;;;;;;;1.13;0.50;;;16.90;89.40;;;;;;4978632;28;20497;-65
2022/09/26 13:52:20;;;;;;;0.50;0.50;;;17.00;89.50;;;;;;4978549;28;20492;-66
2022/09/26 13:54:57;;;;;;;0.63;0.63;;;17.00;89.80;;;;;;4979011;28;20442;-65
2022/09/26 13:57:31;;;;;;;1.50;0.80;;;17.20;89.90;;;;;;4978676;28;20439;-65
2022/09/26 13:59:58;;;;;;;0.57;0.57;;;17.20;90.00;;;;;;4979233;28;20439;-65
2022/09/26 14:02:28;;;;;;;0.70;0.70;;;17.40;90.70;;;;;;4979079;28;20487;-66
2022/09/26 14:05:28;;;;;;;0.80;0.80;;;17.50;90.50;;;;;;4979018;28;20941;-65
2022/09/26 14:10:43;;;;;;;0.50;0.50;;;18.00;91.30;;;;;;4993920;28;20517;-65
2022/09/26 14:13:18;;;;;;;2.20;0.97;;;18.20;90.60;;;;;;4984693;28;20490;-65
2022/09/26 14:15:58;;;;;;;0.83;0.83;;;18.40;91.00;;;;;;4981738;28;20973;-66
2022/09/26 14:19:02;;;;;;;3.70;1.33;;;18.40;90.80;;;;;;4987861;28;20439;-66
2022/09/26 14:21:38;;;;;;;1.00;1.00;;;18.20;90.20;;;;;;4987674;28;20538;-65
2022/09/26 14:24:28;;;;;;;1.50;1.20;;;17.80;89.90;;;;;;4993383;28;20458;-66
2022/09/26 14:27:24;;;;;;;1.33;1.00;;;17.50;91.30;;;;;;4998163;28;20597;-66
2022/09/26 14:29:53;;;;;;;1.40;1.30;;;17.30;92.20;;;;;;4984822;28;20468;-65
2022/09/26 14:32:23;;;;;;;0.97;0.97;;;17.20;93.50;;;;;;4977847;28;20486;-66
2022/09/26 14:34:56;;;;;;;1.00;1.00;;;17.10;92.80;;;;;;4977724;28;20545;-65
2022/09/26 14:37:33;;;;;;;2.30;0.70;;;17.00;93.50;;;;;;4977730;28;20443;-66
2022/09/26 14:40:30;;;;;;;2.27;1.00;;;17.00;93.80;;;;;;4977395;28;20847;-65
2022/09/26 14:42:59;;;;;;;1.80;1.10;;;17.00;94.10;;;;;;4974837;28;20895;-65
2022/09/26 14:45:45;;;;;;;0.90;0.90;;;16.90;94.00;;;;;;4977214;28;20450;-66
2022/09/26 14:48:19;;;;;;;2.00;1.50;;;16.70;94.80;;;;;;4977017;28;20883;-66
2022/09/26 14:50:53;;;;;;;0.80;0.80;;;16.70;94.60;;;;;;4977121;28;20466;-65
2022/09/26 14:53:24;;;;;;;0.93;0.93;;;16.70;94.10;;;;;;4977080;28;20498;-64
2022/09/26 14:55:56;;;;;;;0.90;0.90;;;16.70;93.90;;;;;;4976752;28;20454;-66
2022/09/26 14:58:45;;;;;;;1.10;1.10;;;16.60;94.80;;;;;;4976452;28;20438;-66
2022/09/26 15:01:17;;;;;;;0.90;0.90;;;16.70;95.30;;;;;;4976634;28;20533;-66
2022/09/26 15:03:52;;;;;;;0.77;0.77;;;16.60;95.60;;;;;;4976413;28;20443;-65
2022/09/26 15:06:21;;;;;;;2.73;1.20;;;16.60;95.40;;;;;;4976818;28;20528;-65
2022/09/26 15:08:48;;;;;;;3.30;1.37;;;16.50;95.90;;;;;;4976772;28;20454;-65
2022/09/26 15:11:27;;;;;;;1.17;1.07;;;16.40;95.00;;;;;;4976769;28;20533;-66
2022/09/26 15:13:55;;;;;;;2.27;1.00;;;16.30;96.60;;;;;;4976788;28;20467;-66
2022/09/26 15:16:27;;;;;;;1.23;0.93;;;16.30;97.40;;;;;;4976765;28;20455;-65
2022/09/26 15:18:58;;;;;;;2.17;1.00;;;16.20;97.40;;;;;;4976323;28;21001;-65
2022/09/26 15:21:31;;;;;;;2.00;1.20;;;16.10;97.50;;;;;;4976663;28;20481;-65
2022/09/26 15:24:03;;;;;;;1.10;1.10;;;16.10;97.80;;;;;;4979953;28;20906;-65
2022/09/26 15:26:33;;;;;;;1.53;1.33;;;15.90;97.30;;;;;;4985176;28;20435;-65
2022/09/26 15:29:01;;;;;;;2.30;0.90;;;15.80;96.90;;;;;;4980822;28;20470;-66
2022/09/26 15:31:36;;;;;;;1.53;1.30;;;15.70;97.40;;;;;;4976754;28;20496;-65
2022/09/26 15:34:10;;;;;;;1.13;1.03;;;15.70;97.10;;;;;;4976107;28;20969;-65
2022/09/26 15:36:41;;;;;;;3.80;1.33;;;15.70;98.50;;;;;;4976423;28;20446;-66
2022/09/26 15:39:43;;;;;;;1.70;1.20;;;15.70;99.00;;;;;;4976093;28;20443;-65
2022/09/26 15:45:25;;;;;;;1.17;1.07;;;15.40;99.40;;;;;;4977943;28;20905;-65
2022/09/26 15:47:53;;;;;;;1.13;1.00;;;15.30;99.90;;;;;;4976151;28;20435;-65
2022/09/26 15:50:25;;;;;;;1.00;1.00;;;15.20;99.80;;;;;;4976477;28;20458;-64
2022/09/26 15:52:59;;;;;;;1.27;1.17;;;15.20;99.90;;;;;;4975511;28;20970;-65
2022/09/26 15:55:28;;;;;;;1.50;1.40;;;15.20;99.90;;;;;;4975818;28;20453;-65
2022/09/26 15:57:59;;;;;;;0.90;0.90;;;15.20;99.90;;;;;;4975872;28;20462;-65
2022/09/26 16:00:29;;;;;;;1.97;1.50;;;15.20;99.90;;;;;;4978104;28;20459;-66
2022/09/26 16:02:57;;;;;;;1.87;0.97;;;15.20;99.90;;;;;;4975977;28;20431;-66
2022/09/26 16:05:24;;;;;;;2.23;1.20;;;15.20;99.90;;;;;;4975724;28;20450;-66
2022/09/26 16:07:54;;;;;;;1.03;1.00;;;15.10;99.90;;;;;;4975458;28;20455;-65
2022/09/26 16:10:24;;;;;;;1.20;1.10;;;15.10;99.90;;;;;;4975707;28;20450;-65
2022/09/26 16:12:52;;;;;;;1.10;1.00;;;15.10;99.90;;;;;;4975942;28;20463;-65
2022/09/26 16:15:22;;;;;;;0.93;0.93;;;15.10;99.90;;;;;;4975584;28;20950;-66
2022/09/26 16:17:53;;;;;;;1.63;1.20;;;15.10;99.90;;;;;;4978725;28;20455;-66
2022/09/26 16:20:26;;;;;;;1.50;1.10;;;15.10;99.90;;;;;;4976390;28;20454;-66
2022/09/26 16:22:55;;;;;;;1.43;1.17;;;15.10;99.90;;;;;;4976690;28;20439;-65
2022/09/26 16:25:33;;;;;;;2.00;1.13;;;15.10;99.90;;;;;;4984741;28;20467;-65
2022/09/26 16:28:19;;;;;;;1.20;1.10;;;15.00;99.90;;;;;;4995405;28;20435;-65
2022/09/26 16:30:58;;;;;;;1.77;1.30;;;15.00;99.90;;;;;;4995083;28;20471;-65
2022/09/26 16:33:29;;;;;;;1.70;1.37;;;14.90;99.90;;;;;;4985118;28;20799;-65
2022/09/26 16:36:03;;;;;;;1.73;1.50;;;14.80;99.90;;;;;;4975937;28;20923;-65
2022/09/26 16:38:34;;;;;;;4.10;2.10;;;14.80;99.90;;;;;;4979540;28;20445;-65
2022/09/26 16:41:07;;;;;;;1.73;1.63;;;14.80;99.90;;;;;;4979368;28;20474;-65
2022/09/26 16:43:34;;;;;;;2.03;1.57;;;14.80;99.90;;;;;;4980786;28;20432;-67
2022/09/26 16:46:06;;;;;;;1.20;1.20;;;14.80;99.90;;;;;;4979627;28;20477;-65
2022/09/26 16:48:36;;;;;;;1.80;1.50;;;14.70;99.90;;;;;;4979564;28;20803;-66
2022/09/26 16:51:15;;;;;;;1.40;1.33;;;14.70;99.90;;;;;;4978858;28;20489;-65
2022/09/26 16:53:45;;;;;;;2.20;1.30;;;14.70;99.90;;;;;;4979477;28;20470;-65
2022/09/26 16:56:14;;;;;;;1.47;1.37;;;14.70;99.90;;;;;;4979366;28;20804;-65
2022/09/26 16:58:47;;;;;;;2.33;1.30;;;14.70;99.90;;;;;;4982581;28;20455;-65
2022/09/26 17:03:58;;;;;;;1.67;1.57;;;14.60;99.90;;;;;;4980630;28;20462;-66
2022/09/26 17:06:26;;;;;;;1.40;1.30;;;14.50;99.90;;;;;;4980354;28;20469;-65
2022/09/26 17:08:55;;;;;;;1.60;1.40;;;14.50;99.90;;;;;;4978898;28;20466;-65
2022/09/26 17:11:23;;;;;;;1.70;1.60;;;14.50;99.90;;;;;;4979083;28;20478;-66
2022/09/26 17:13:50;;;;;;;2.60;1.30;;;14.40;99.90;;;;;;4980223;28;20481;-66
2022/09/26 17:16:17;;;;;;;2.20;1.50;;;14.40;99.90;;;;;;4978891;28;20545;-65
2022/09/26 17:18:44;;;;;;;1.10;1.10;;;14.50;99.90;;;;;;4979204;28;20458;-65
2022/09/26 17:21:11;;;;;;;1.60;1.50;;;14.50;99.90;;;;;;4979516;28;20483;-65
2022/09/26 17:23:39;;;;;;;2.43;1.60;;;14.40;99.90;;;;;;4979046;28;20451;-65
2022/09/26 17:26:07;;;;;;;1.93;1.57;;;14.40;99.90;;;;;;4978608;28;20454;-65
2022/09/26 17:28:38;;;;;;;2.50;1.97;;;14.40;99.90;;;;;;4978905;28;20459;-65
2022/09/26 17:31:06;;;;;;;1.93;1.83;;;14.40;99.90;;;;;;4979939;28;20474;-66
2022/09/26 17:33:36;;;;;;;2.93;1.30;;;14.40;99.90;;;;;;4978540;28;20474;-65
2022/09/26 17:36:09;;;;;;;1.50;1.40;;;14.50;99.90;;;;;;4983755;28;20439;-66
2022/09/26 17:38:36;;;;;;;1.43;1.40;;;14.50;99.90;;;;;;4988823;28;20439;-66